Virtual Norwegian is not affiliated with Norwegian Air Shuttle in any way.
If you are looking for the real "Norwegian", or you wish to book Norwegian flights, please visit Norwegian.com


We use cookies to ensure you get the best experience on our website.   ACCEPT

LEPA - PMI - Palma de Mallorca (Son Sant Joan)

General Info Alternate Airport
ICAO: LEPA Elevation: 24 ft ICAO: LEIB
IATA: PMI Country: Spain IATA: IBZ
City: Palma de Mallorca Charts: Log in to view charts City: Ibiza
Name: Son Sant Joan Hub: Yes Name Ibiza
General Info
ICAO: LEPA
IATA: PMI
City: Palma de Mallorca
Name: Son Sant Joan
Elevation: 24 ft
Country: Spain
Charts: Log in to view charts
Hub: Yes
 
Alternate Airport
ICAO: LEIB
IATA: IBZ
City: Ibiza
Name: Ibiza

Weather
121730Z VRB01KT 9999 FEW023 11/06 Q1017 NOSIG
Weather
121730Z VRB01KT 9999 FEW023 11/06 Q1017 NOSIG

Runway Info
06L
Length ILS/LOC Course
3270 m 110.90 059
06R
Length ILS/LOC Heading
3000 m N/A 059
24L
Length ILS/LOC Course
3000 m 109.30 239
24R
Length ILS/LOC Course
3270 m 109.90 239

NOTAMs
NOTAMs currently unavailable.
NOTAMs
NOTAMs currently unavailable

Route map
Airport
Airport (hub)